YSCB

Canberra International Airport

Airport
ICAO code
YSCB
IATA Code
CBR
Summary
ICAO Region
APAC
ICAO Territory
Location

Canberra, Australian Capital Territory

Serving
Canberra
Elevation
1888 ft
Coordinates
35° 18' 19" S , 149° 11' 36" E
Metar
Observation
YSCB 281000Z AUTO 36008KT 9999 // NCD 14/06 Q1008
Station
Canberra
Date/Time
2022-11-28 10:00:00
Wind direction
360°
Wind speed
08 kts
Lowest cloud amount
no clouds detected
Temperature
14°C
Dew point
6°C
Humidity
58%
QNH
1008 hPa
Weather condition
n/a

Airport map

Aerial View

SKYbrary Partners:

Safety knowledge contributed by: